LFKB/BIA METAR and TAF weather

Enter ICAO airport designator
Station Type Date Time Source
LFKB METAR 2020/09/20 02:00 UTC NOAA

LFKB 200200Z AUTO VRB02KT 9999 ///TCU 20/16 Q1015 BECMG FEW040


Station Type Date Time Source
LFKB Decoded METAR 2020/09/20 02:00 UTC NOAA

Bastia, France (LFKB) 42-33N 009-29E 12M
Sep 19, 2020 - 10:00 PM EDT / 2020.09.20 0200 UTC
Wind: Variable at 2 MPH (2 KT):0
Visibility: greater than 7 mile(s):0
Weather: Towering cumulus clouds observed
Temperature: 68 F (20 C)
Dew Point: 60 F (16 C)
Relative Humidity: 77%
Pressure (altimeter): 29.97 in. Hg (1015 hPa)
ob: LFKB 200200Z AUTO VRB02KT 9999 ///TCU 20/16 Q1015 BECMG FEW040
cycle: 2

Station Type Date Time Source
LFKB TAF 2020/09/20 03:22 UTC NOAA

TAF LFKB 200200Z 2003/2103 29004KT 9999 FEW040 TX27/2012Z TN18/2103Z
TEMPO 2003/2006 RA FEW035CB
BECMG 2009/2011 01010KT
TEMPO 2011/2015 VRB15G25KT 4000 TSRA SCT020 FEW035CB BKN050
BECMG 2017/2019 24005KT

Example: see airport list